Time;durP1;ratioP1;P1;durP2;ratioP2;P2;SDS_P1;SDS_P2;PMS_P1;PMS_P2;Temp;Humidity;BMP_temperature;BMP_pressure;BME280_temperature;BME280_humidity;BME280_pressure;Samples;Min_cycle;Max_cycle;Signal;HPM_P1;HPM_P2
2022/06/15 00:00:23;;;;;;;;;;;;;;;16.07;42.59;101155.81;4900994;28;97747;-67
2022/06/15 00:02:49;;;;;;;;;;;;;;;16.03;42.44;101152.06;4916398;28;99346;-61
2022/06/15 00:05:15;;;;;;;;;;;;;;;15.98;42.62;101155.63;4920575;28;127938;-61
2022/06/15 00:07:41;;;;;;;;;;;;;;;15.92;42.54;101156.81;4919948;28;97888;-67
2022/06/15 00:10:08;;;;;;;;;;;;;;;15.87;42.53;101156.81;4920838;28;121760;-67
2022/06/15 00:12:37;;;;;;;;;;;;;;;15.80;43.02;101154.47;4917959;28;120509;-67
2022/06/15 00:15:04;;;;;;;;;;;;;;;15.77;42.94;101146.88;4904919;28;98868;-67
2022/06/15 00:17:31;;;;;;;;;;;;;;;15.74;43.08;101150.16;4919917;28;116209;-61
2022/06/15 00:19:56;;;;;;;;;;;;;;;15.70;42.88;101147.19;4921122;28;98287;-67
2022/06/15 00:22:22;;;;;;;;;;;;;;;15.67;43.06;101141.50;4907405;28;126146;-67
2022/06/15 00:24:48;;;;;;;;;;;;;;;15.64;42.96;101145.59;4902426;28;127996;-67
2022/06/15 00:27:14;;;;;;;;;;;;;;;15.63;43.31;101145.88;4911601;28;127682;-61
2022/06/15 00:29:40;;;;;;;;;;;;;;;15.61;42.96;101137.22;4919522;28;123363;-61
2022/06/15 00:32:06;;;;;;;;;;;;;;;15.59;43.53;101142.09;4919171;28;128065;-61
2022/06/15 00:34:32;;;;;;;;;;;;;;;15.55;43.48;101138.31;4915454;28;126851;-61
2022/06/15 00:36:58;;;;;;;;;;;;;;;15.51;43.42;101142.72;4900662;28;120434;-61
2022/06/15 00:39:24;;;;;;;;;;;;;;;15.45;43.76;101153.63;4917353;28;97896;-61
2022/06/15 00:41:50;;;;;;;;;;;;;;;15.41;43.64;101152.56;4913123;28;98680;-61
2022/06/15 00:44:19;;;;;;;;;;;;;;;15.38;43.40;101155.03;4900966;28;128023;-67
2022/06/15 00:46:46;;;;;;;;;;;;;;;15.35;43.65;101153.69;4919937;28;98106;-67
2022/06/15 00:49:24;;;;;;;;;;;;;;;15.32;43.39;101154.25;4903958;28;97898;-66
2022/06/15 00:51:51;;;;;;;;;;;;;;;15.32;43.49;101150.72;4900811;28;98216;-66
2022/06/15 00:54:17;;;;;;;;;;;;;;;15.29;43.54;101143.13;4925962;28;114426;-61
2022/06/15 00:56:43;;;;;;;;;;;;;;;15.26;43.64;101144.53;4898736;28;125289;-67
2022/06/15 00:59:18;;;;;;;;;;;;;;;15.24;43.67;101149.41;4915996;28;97832;-61
2022/06/15 01:01:44;;;;;;;;;;;;;;;15.21;44.23;101145.38;4904264;28;98626;-67
2022/06/15 01:04:10;;;;;;;;;;;;;;;15.19;44.27;101152.97;4915345;28;122110;-66
2022/06/15 01:06:54;;;;;;;;;;;;;;;15.15;44.11;101141.06;4914250;28;129518;-61
2022/06/15 01:09:27;;;;;;;;;;;;;;;15.10;44.18;101140.28;4901547;28;97958;-61
2022/06/15 01:12:14;;;;;;;;;;;;;;;15.02;44.62;101136.25;4889956;28;101021;-60
2022/06/15 01:14:51;;;;;;;;;;;;;;;14.95;44.75;101135.75;4916268;28;98152;-67
2022/06/15 01:17:59;;;;;;;;;;;;;;;14.92;44.84;101133.59;4899869;28;98483;-67
2022/06/15 01:20:41;;;;;;;;;;;;;;;14.89;44.36;101134.97;4897874;28;97959;-61
2022/06/15 01:23:34;;;;;;;;;;;;;;;14.87;44.80;101130.91;4902235;28;98371;-61
2022/06/15 01:26:25;;;;;;;;;;;;;;;14.87;44.82;101128.22;4912949;28;98912;-67
2022/06/15 01:28:53;;;;;;;;;;;;;;;14.83;44.68;101127.16;4920253;28;98098;-61
2022/06/15 01:31:48;;;;;;;;;;;;;;;14.80;45.06;101130.41;4913749;28;117777;-61
2022/06/15 01:34:18;;;;;;;;;;;;;;;14.74;45.02;101126.94;4915766;28;98466;-68
2022/06/15 01:36:56;;;;;;;;;;;;;;;14.68;44.85;101122.59;4925455;28;101335;-61
2022/06/15 01:39:47;;;;;;;;;;;;;;;14.64;45.03;101129.66;4902441;28;118315;-60
2022/06/15 01:42:33;;;;;;;;;;;;;;;14.58;45.16;101118.03;4901292;28;97869;-68
2022/06/15 01:45:03;;;;;;;;;;;;;;;14.52;45.44;101116.44;4902380;28;124807;-60
2022/06/15 01:47:30;;;;;;;;;;;;;;;14.56;45.47;101122.13;4901562;28;124214;-61
2022/06/15 01:50:17;;;;;;;;;;;;;;;14.61;45.69;101113.94;4907088;28;107846;-60
2022/06/15 01:53:18;;;;;;;;;;;;;;;14.66;45.68;101108.50;4901514;28;115423;-67
2022/06/15 01:55:53;;;;;;;;;;;;;;;14.70;45.72;101106.88;4929329;28;98405;-60
2022/06/15 01:58:19;;;;;;;;;;;;;;;14.72;45.54;101097.34;4918684;28;119502;-60
2022/06/15 02:00:51;;;;;;;;;;;;;;;14.73;45.58;101095.44;4901882;28;117885;-66
2022/06/15 02:03:22;;;;;;;;;;;;;;;14.76;45.49;101104.94;4920577;28;97926;-66
2022/06/15 02:06:15;;;;;;;;;;;;;;;14.72;45.69;101091.91;4907676;28;98288;-60
2022/06/15 02:08:52;;;;;;;;;;;;;;;14.65;45.51;101088.69;4915658;28;98164;-60
2022/06/15 02:11:22;;;;;;;;;;;;;;;14.58;46.01;101085.50;4905050;28;106843;-67
2022/06/15 02:14:11;;;;;;;;;;;;;;;14.50;46.18;101086.03;4908556;28;97842;-60
2022/06/15 02:16:46;;;;;;;;;;;;;;;14.45;45.94;101083.34;4917944;28;123966;-60
2022/06/15 02:19:14;;;;;;;;;;;;;;;14.43;46.15;101086.34;4920300;28;98910;-60
2022/06/15 02:21:40;;;;;;;;;;;;;;;14.42;46.27;101076.59;4919123;28;98058;-60
2022/06/15 02:24:06;;;;;;;;;;;;;;;14.42;45.90;101092.84;4917906;28;117974;-61
2022/06/15 02:26:33;;;;;;;;;;;;;;;14.41;46.32;101083.06;4906684;28;128270;-60
2022/06/15 02:29:09;;;;;;;;;;;;;;;14.40;46.03;101091.50;4922645;28;124377;-66
2022/06/15 02:31:36;;;;;;;;;;;;;;;14.39;46.23;101084.47;4919843;28;98474;-60
2022/06/15 02:34:02;;;;;;;;;;;;;;;14.38;46.33;101082.81;4908584;28;113097;-64
2022/06/15 02:36:31;;;;;;;;;;;;;;;14.37;46.03;101083.91;4902101;28;128791;-60
2022/06/15 02:38:57;;;;;;;;;;;;;;;14.33;46.19;101080.94;4901962;28;99057;-60
2022/06/15 02:41:23;;;;;;;;;;;;;;;14.30;46.21;101086.09;4904936;28;127504;-66
2022/06/15 02:43:54;;;;;;;;;;;;;;;14.24;46.59;101077.19;4903738;28;97828;-67
2022/06/15 02:46:20;;;;;;;;;;;;;;;14.20;46.36;101086.97;4911181;28;117090;-67
2022/06/15 02:48:46;;;;;;;;;;;;;;;14.15;46.53;101082.38;4921561;28;127938;-60
2022/06/15 02:51:26;;;;;;;;;;;;;;;14.09;46.79;101082.66;4922012;28;126814;-67
2022/06/15 02:53:53;;;;;;;;;;;;;;;14.05;46.60;101084.31;4920721;28;106182;-67
2022/06/15 02:56:19;;;;;;;;;;;;;;;13.99;47.05;101080.81;4901431;28;98354;-66
2022/06/15 02:58:47;;;;;;;;;;;;;;;13.95;46.77;101082.41;4900645;28;97961;-66
2022/06/15 03:01:13;;;;;;;;;;;;;;;13.90;46.86;101080.53;4903922;28;99384;-66
2022/06/15 03:03:39;;;;;;;;;;;;;;;13.87;47.11;101080.25;4904339;28;97923;-66
2022/06/15 03:06:09;;;;;;;;;;;;;;;13.83;46.76;101092.75;4903608;28;128789;-60
2022/06/15 03:08:35;;;;;;;;;;;;;;;13.80;47.17;101083.28;4902139;28;98787;-67
2022/06/15 03:11:01;;;;;;;;;;;;;;;13.79;47.23;101081.63;4921835;28;98099;-67
2022/06/15 03:13:27;;;;;;;;;;;;;;;13.80;47.00;101085.19;4906223;28;110272;-61
2022/06/15 03:15:58;;;;;;;;;;;;;;;13.80;47.17;101096.03;4909492;28;98789;-66
2022/06/15 03:18:25;;;;;;;;;;;;;;;13.80;47.30;101093.31;4921377;28;98622;-61
2022/06/15 03:20:51;;;;;;;;;;;;;;;13.74;47.41;101096.00;4909025;28;128188;-60
2022/06/15 03:23:17;;;;;;;;;;;;;;;13.72;47.44;101100.09;4916162;28;97794;-61
2022/06/15 03:25:43;;;;;;;;;;;;;;;13.71;47.47;101107.38;4922310;28;97994;-62
2022/06/15 03:28:10;;;;;;;;;;;;;;;13.73;47.34;101107.94;4920293;28;127086;-66
2022/06/15 03:30:38;;;;;;;;;;;;;;;13.74;47.31;101100.63;4921935;28;97883;-66
2022/06/15 03:33:04;;;;;;;;;;;;;;;13.74;47.30;101098.72;4908897;28;97827;-67
2022/06/15 03:35:34;;;;;;;;;;;;;;;13.73;47.44;101094.38;4901059;28;128161;-66
2022/06/15 03:38:01;;;;;;;;;;;;;;;13.73;47.42;101093.59;4901561;28;98034;-66
2022/06/15 03:40:27;;;;;;;;;;;;;;;13.72;47.60;101102.81;4901994;28;98052;-61
2022/06/15 03:42:53;;;;;;;;;;;;;;;13.73;47.68;101097.09;4912158;28;120570;-60
2022/06/15 03:45:19;;;;;;;;;;;;;;;13.75;47.53;101096.81;4920063;28;98953;-60
2022/06/15 03:47:45;;;;;;;;;;;;;;;13.76;47.73;101098.47;4919743;28;127692;-60
2022/06/15 03:50:11;;;;;;;;;;;;;;;13.75;47.83;101089.53;4921195;28;98145;-60
2022/06/15 03:52:37;;;;;;;;;;;;;;;13.77;47.64;101096.56;4911906;28;120444;-60
2022/06/15 03:55:03;;;;;;;;;;;;;;;13.78;47.64;101096.28;4917867;28;128474;-60
2022/06/15 03:57:29;;;;;;;;;;;;;;;13.84;47.62;101094.38;4904093;28;124185;-67
2022/06/15 03:59:55;;;;;;;;;;;;;;;13.90;47.71;101094.09;4898953;28;127595;-61
2022/06/15 04:02:21;;;;;;;;;;;;;;;13.97;47.54;101097.31;4907475;28;121648;-61
2022/06/15 04:04:47;;;;;;;;;;;;;;;14.04;47.57;101093.53;4921522;28;128437;-67
2022/06/15 04:09:57;;;;;;;;;;;;;;;14.19;47.41;101090.78;4900023;28;97806;-67
2022/06/15 04:12:23;;;;;;;;;;;;;;;14.26;47.16;101088.56;4905716;28;97936;-66
2022/06/15 04:14:49;;;;;;;;;;;;;;;14.32;47.15;101075.81;4919369;28;97799;-61
2022/06/15 04:17:17;;;;;;;;;;;;;;;14.38;47.50;101075.53;4921090;28;98832;-61
2022/06/15 04:19:43;;;;;;;;;;;;;;;14.45;47.01;101077.91;4918684;28;99495;-66
2022/06/15 04:22:09;;;;;;;;;;;;;;;14.53;47.19;101076.53;4917271;28;121476;-61
2022/06/15 04:24:36;;;;;;;;;;;;;;;14.60;46.93;101077.88;4900785;28;120127;-67
2022/06/15 04:27:02;;;;;;;;;;;;;;;14.70;47.07;101082.44;4910761;28;98205;-60
2022/06/15 04:29:28;;;;;;;;;;;;;;;14.81;46.79;101083.19;4920584;28;126519;-66
2022/06/15 04:31:54;;;;;;;;;;;;;;;14.88;47.26;101083.69;4913330;28;98021;-66
2022/06/15 04:34:20;;;;;;;;;;;;;;;14.98;46.64;101087.16;4904065;28;98589;-61
2022/06/15 04:36:46;;;;;;;;;;;;;;;15.07;46.46;101073.78;4901509;28;107744;-67
2022/06/15 04:39:13;;;;;;;;;;;;;;;15.16;46.36;101074.78;4900012;28;127853;-66
2022/06/15 04:41:39;;;;;;;;;;;;;;;15.26;46.47;101083.97;4909586;28;97862;-61
2022/06/15 04:44:05;;;;;;;;;;;;;;;15.34;46.47;101080.66;4919838;28;106878;-67
2022/06/15 04:46:32;;;;;;;;;;;;;;;15.44;46.31;101078.66;4915259;28;114630;-61
2022/06/15 04:48:58;;;;;;;;;;;;;;;15.55;46.26;101075.84;4916570;28;119568;-60
2022/06/15 04:51:25;;;;;;;;;;;;;;;15.64;45.69;101083.09;4919468;28;98016;-61
2022/06/15 04:53:52;;;;;;;;;;;;;;;15.77;45.80;101081.66;4934556;28;99203;-67
2022/06/15 04:56:18;;;;;;;;;;;;;;;15.91;45.80;101074.41;4920202;28;99167;-66
2022/06/15 04:58:44;;;;;;;;;;;;;;;16.07;45.28;101069.66;4920073;28;98004;-67
2022/06/15 05:01:10;;;;;;;;;;;;;;;16.22;45.55;101062.38;4919715;28;97953;-67
2022/06/15 05:03:37;;;;;;;;;;;;;;;16.31;45.41;101061.47;4918414;28;98238;-60
2022/06/15 05:06:12;;;;;;;;;;;;;;;16.41;45.13;101064.03;4914732;28;99211;-67
2022/06/15 05:08:38;;;;;;;;;;;;;;;16.62;44.90;101061.03;4902635;28;98135;-67
2022/06/15 05:11:04;;;;;;;;;;;;;;;16.74;44.97;101066.91;4902766;28;98254;-67
2022/06/15 05:13:30;;;;;;;;;;;;;;;16.81;44.82;101066.53;4919704;28;101064;-67
2022/06/15 05:15:55;;;;;;;;;;;;;;;16.92;44.67;101068.00;4917543;28;126545;-67
2022/06/15 05:18:21;;;;;;;;;;;;;;;17.01;44.67;101066.22;4902623;28;125577;-66
2022/06/15 05:20:47;;;;;;;;;;;;;;;17.13;44.40;101060.31;4902956;28;121648;-67
2022/06/15 05:23:14;;;;;;;;;;;;;;;17.49;44.07;101068.72;4903988;28;116866;-61
2022/06/15 05:25:40;;;;;;;;;;;;;;;17.83;43.81;101064.88;4905190;28;98750;-61
2022/06/15 05:28:07;;;;;;;;;;;;;;;18.14;43.61;101073.25;4923620;28;97837;-67
2022/06/15 05:30:34;;;;;;;;;;;;;;;18.35;43.23;101066.31;4923446;28;98095;-66
2022/06/15 05:33:00;;;;;;;;;;;;;;;18.62;43.00;101064.63;4906097;28;121371;-61
2022/06/15 05:35:26;;;;;;;;;;;;;;;18.87;42.69;101075.00;4902294;28;129609;-60
2022/06/15 05:37:51;;;;;;;;;;;;;;;19.13;42.45;101068.94;4922200;28;98089;-61
2022/06/15 05:40:17;;;;;;;;;;;;;;;19.37;42.02;101074.91;4921611;28;122476;-61
2022/06/15 05:42:43;;;;;;;;;;;;;;;19.70;41.87;101071.91;4907789;28;128138;-60
2022/06/15 05:45:09;;;;;;;;;;;;;;;20.11;41.40;101068.03;4902071;28;126286;-61
2022/06/15 05:47:35;;;;;;;;;;;;;;;21.95;38.95;101067.69;4917661;28;99347;-61
2022/06/15 05:50:01;;;;;;;;;;;;;;;23.90;36.02;101062.44;4916029;28;122043;-67
2022/06/15 05:52:27;;;;;;;;;;;;;;;24.91;35.19;101064.34;4901773;28;98783;-67
2022/06/15 05:54:53;;;;;;;;;;;;;;;26.34;33.85;101067.31;4904084;28;128839;-61
2022/06/15 05:57:21;;;;;;;;;;;;;;;27.56;32.84;101071.44;4916041;28;98002;-68
2022/06/15 05:59:47;;;;;;;;;;;;;;;28.93;31.56;101082.63;4921275;28;124141;-67
2022/06/15 06:02:13;;;;;;;;;;;;;;;28.46;32.49;101082.03;4920838;28;98530;-67
2022/06/15 06:04:39;;;;;;;;;;;;;;;28.89;32.58;101079.03;4920830;28;98428;-61
2022/06/15 06:07:05;;;;;;;;;;;;;;;30.59;30.64;101072.66;4919635;28;127159;-61
2022/06/15 06:09:31;;;;;;;;;;;;;;;32.81;28.13;101079.22;4922086;28;121533;-61
2022/06/15 06:11:57;;;;;;;;;;;;;;;33.84;26.76;101087.00;4919309;28;128360;-67
2022/06/15 06:14:23;;;;;;;;;;;;;;;33.23;27.32;101084.63;4921350;28;126962;-67
2022/06/15 06:16:49;;;;;;;;;;;;;;;33.15;27.49;101079.47;4912248;28;114544;-67
2022/06/15 06:19:15;;;;;;;;;;;;;;;34.93;25.71;101082.69;4902180;28;97872;-61
2022/06/15 06:21:43;;;;;;;;;;;;;;;34.59;25.69;101077.13;4902296;28;127204;-68
2022/06/15 06:24:09;;;;;;;;;;;;;;;35.10;25.29;101073.28;4902342;28;98030;-61
2022/06/15 06:26:36;;;;;;;;;;;;;;;36.11;24.08;101078.91;4904311;28;121623;-67
2022/06/15 06:29:02;;;;;;;;;;;;;;;35.51;24.77;101066.69;4902656;28;97905;-62
2022/06/15 06:31:28;;;;;;;;;;;;;;;35.94;24.11;101057.56;4903418;28;111449;-67
2022/06/15 06:33:54;;;;;;;;;;;;;;;36.21;23.73;101060.28;4901987;28;124049;-61
2022/06/15 06:36:28;;;;;;;;;;;;;;;36.45;23.57;101051.81;4914300;28;127181;-67
2022/06/15 06:38:54;;;;;;;;;;;;;;;35.79;23.77;101047.81;4920711;28;97904;-61
2022/06/15 06:41:21;;;;;;;;;;;;;;;35.32;24.08;101048.53;4916445;28;128085;-67
2022/06/15 06:43:47;;;;;;;;;;;;;;;34.92;24.49;101042.69;4903080;28;124105;-68
2022/06/15 06:46:13;;;;;;;;;;;;;;;34.62;24.59;101034.28;4905253;28;127645;-67
2022/06/15 06:48:39;;;;;;;;;;;;;;;34.32;24.04;101035.84;4906829;28;121166;-61
2022/06/15 06:51:04;;;;;;;;;;;;;;;34.05;24.74;101044.09;4901647;28;128435;-67
2022/06/15 06:53:31;;;;;;;;;;;;;;;33.83;24.54;101029.50;4906221;28;127447;-68
2022/06/15 06:56:01;;;;;;;;;;;;;;;33.68;24.44;101033.63;4922103;28;98647;-67
2022/06/15 06:58:27;;;;;;;;;;;;;;;33.54;24.63;101042.16;4920074;28;103423;-61
2022/06/15 07:00:53;;;;;;;;;;;;;;;33.48;24.66;101030.59;4921294;28;99321;-61
2022/06/15 07:03:19;;;;;;;;;;;;;;;33.50;24.83;101027.41;4902341;28;98763;-61
2022/06/15 07:05:48;;;;;;;;;;;;;;;33.55;24.40;101036.13;4901068;28;126772;-68
2022/06/15 07:08:14;;;;;;;;;;;;;;;33.63;24.16;101029.28;4920798;28;97868;-61
2022/06/15 07:10:40;;;;;;;;;;;;;;;33.72;24.50;101029.63;4919761;28;117246;-61
2022/06/15 07:13:06;;;;;;;;;;;;;;;33.81;24.52;101034.72;4918388;28;129342;-67
2022/06/15 07:15:32;;;;;;;;;;;;;;;33.93;24.37;101022.25;4924190;28;98227;-67
2022/06/15 07:18:01;;;;;;;;;;;;;;;34.04;24.11;101025.75;4904834;28;122553;-67
2022/06/15 07:20:30;;;;;;;;;;;;;;;34.16;23.83;101030.03;4902247;28;115198;-67
2022/06/15 07:22:57;;;;;;;;;;;;;;;34.31;23.95;101022.25;4901956;28;98346;-61
2022/06/15 07:25:23;;;;;;;;;;;;;;;34.43;23.46;101024.53;4902139;28;98131;-67
2022/06/15 07:27:49;;;;;;;;;;;;;;;34.56;23.20;101013.59;4917049;28;121181;-61
2022/06/15 07:30:19;;;;;;;;;;;;;;;34.66;23.59;101019.06;4906573;28;124388;-61
2022/06/15 07:32:45;;;;;;;;;;;;;;;34.74;23.23;101011.34;4914622;28;122661;-67
2022/06/15 07:35:16;;;;;;;;;;;;;;;34.85;23.05;101014.00;4919699;28;125741;-67
2022/06/15 07:37:42;;;;;;;;;;;;;;;34.99;23.12;101013.06;4904556;28;98017;-67
2022/06/15 07:40:09;;;;;;;;;;;;;;;35.13;22.68;101015.63;4914440;28;98384;-61
2022/06/15 07:42:35;;;;;;;;;;;;;;;35.30;22.83;101014.56;4906144;28;126740;-61
2022/06/15 07:45:00;;;;;;;;;;;;;;;35.47;22.62;101009.88;4901361;28;128241;-61
2022/06/15 07:50:11;;;;;;;;;;;;;;;35.94;22.00;101011.91;4906487;28;97922;-61
2022/06/15 07:52:39;;;;;;;;;;;;;;;36.26;21.82;101016.94;4900878;28;97794;-67
2022/06/15 07:55:06;;;;;;;;;;;;;;;36.59;21.81;101003.84;4918449;28;118520;-67
2022/06/15 07:57:32;;;;;;;;;;;;;;;36.97;21.29;101011.84;4919322;28;97895;-61
2022/06/15 07:59:58;;;;;;;;;;;;;;;37.33;21.10;101008.97;4908619;28;127902;-61
2022/06/15 08:02:24;;;;;;;;;;;;;;;37.71;20.83;101006.44;4899820;28;128222;-67
2022/06/15 08:04:50;;;;;;;;;;;;;;;38.01;19.98;100999.63;4899649;28;126353;-61
2022/06/15 08:07:16;;;;;;;;;;;;;;;38.24;19.75;100992.16;4901606;28;99050;-61
2022/06/15 08:09:42;;;;;;;;;;;;;;;38.55;20.17;100998.09;4904888;28;98622;-60
2022/06/15 08:12:11;;;;;;;;;;;;;;;38.89;19.77;100999.53;4908086;28;98426;-61
2022/06/15 08:14:42;;;;;;;;;;;;;;;39.28;19.72;100993.44;4900394;28;98880;-61
2022/06/15 08:17:10;;;;;;;;;;;;;;;39.67;19.28;100993.34;4900271;28;118175;-61
2022/06/15 08:19:37;;;;;;;;;;;;;;;40.07;18.73;100992.75;4904841;28;98870;-61
2022/06/15 08:22:03;;;;;;;;;;;;;;;40.48;18.39;100991.63;4881416;28;123872;-67
2022/06/15 08:24:30;;;;;;;;;;;;;;;40.91;18.09;100985.13;4899988;28;125553;-67
2022/06/15 08:26:55;;;;;;;;;;;;;;;41.32;17.71;100980.22;4910446;28;97771;-61
2022/06/15 08:29:21;;;;;;;;;;;;;;;41.83;17.58;100978.91;4912772;28;127833;-61
2022/06/15 08:31:47;;;;;;;;;;;;;;;42.25;17.06;100975.41;4898208;28;128069;-61
2022/06/15 08:34:13;;;;;;;;;;;;;;;42.46;16.96;100965.91;4902006;28;127578;-61
2022/06/15 08:36:39;;;;;;;;;;;;;;;42.74;16.90;100969.44;4905949;28;121696;-66
2022/06/15 08:39:05;;;;;;;;;;;;;;;43.07;16.76;100960.16;4918158;28;114742;-60
2022/06/15 08:41:47;;;;;;;;;;;;;;;43.32;16.64;100961.75;4915133;28;98178;-67
2022/06/15 08:44:22;;;;;;;;;;;;;;;43.61;16.09;100958.22;4898774;28;119296;-67
2022/06/15 08:47:02;;;;;;;;;;;;;;;44.03;15.82;100952.34;4902020;28;97763;-58
2022/06/15 08:49:53;;;;;;;;;;;;;;;44.52;15.52;100955.75;4916505;28;98730;-65
2022/06/15 08:52:24;;;;;;;;;;;;;;;44.93;15.18;100953.81;4910373;28;98112;-65
2022/06/15 08:54:56;;;;;;;;;;;;;;;45.30;15.08;100950.44;4910088;28;118182;-65
2022/06/15 08:57:41;;;;;;;;;;;;;;;45.60;16.13;100941.78;4911427;28;98062;-59
2022/06/15 09:00:09;;;;;;;;;;;;;;;45.89;16.52;100943.66;4899255;28;98521;-59
2022/06/15 09:02:56;;;;;;;;;;;;;;;46.10;16.53;100935.81;4909303;28;98155;-59
2022/06/15 09:05:32;;;;;;;;;;;;;;;46.26;15.81;100935.19;4898694;28;98352;-64
2022/06/15 09:08:08;;;;;;;;;;;;;;;46.36;15.63;100933.72;4913899;28;121700;-65
2022/06/15 09:10:53;;;;;;;;;;;;;;;46.56;14.98;100935.69;4917115;28;126104;-60
2022/06/15 09:13:40;;;;;;;;;;;;;;;46.53;15.21;100933.84;4908869;28;98759;-64
2022/06/15 09:16:30;;;;;;;;;;;;;;;46.51;15.19;100933.56;4920944;28;98554;-61
2022/06/15 09:19:06;;;;;;;;;;;;;;;46.43;14.78;100935.34;4919566;28;97711;-59
2022/06/15 09:21:35;;;;;;;;;;;;;;;46.41;14.50;100923.66;4913523;28;98294;-59
2022/06/15 09:24:21;;;;;;;;;;;;;;;46.02;15.37;100910.66;4913287;28;98531;-64
2022/06/15 09:26:51;;;;;;;;;;;;;;;45.43;15.41;100916.75;4918528;28;106200;-59
2022/06/15 09:29:26;;;;;;;;;;;;;;;45.01;15.66;100914.41;4919400;28;97833;-65
2022/06/15 09:32:21;;;;;;;;;;;;;;;44.57;15.78;100907.56;4898206;28;125011;-65
2022/06/15 09:35:09;;;;;;;;;;;;;;;44.28;16.08;100904.78;4931291;28;98598;-60
2022/06/15 09:37:36;;;;;;;;;;;;;;;44.24;15.84;100904.94;4907304;28;122464;-60
2022/06/15 09:40:02;;;;;;;;;;;;;;;44.57;15.87;100910.41;4901663;28;97975;-65
2022/06/15 09:42:49;;;;;;;;;;;;;;;44.96;14.96;100907.38;4901531;28;98461;-60
2022/06/15 09:45:33;;;;;;;;;;;;;;;45.59;14.98;100904.00;4904858;28;98270;-66
2022/06/15 09:48:15;;;;;;;;;;;;;;;46.27;14.90;100908.28;4899991;28;98378;-66
2022/06/15 09:50:48;;;;;;;;;;;;;;;46.86;14.12;100906.88;4898929;28;122088;-60
2022/06/15 09:53:21;;;;;;;;;;;;;;;47.43;14.31;100909.47;4903416;28;100980;-66
2022/06/15 09:55:56;;;;;;;;;;;;;;;47.94;13.87;100907.47;4918648;28;99109;-65
2022/06/15 09:58:25;;;;;;;;;;;;;;;48.31;13.47;100897.91;4921200;28;97732;-66
2022/06/15 10:00:51;;;;;;;;;;;;;;;48.54;13.61;100897.84;4920107;28;110029;-65
2022/06/15 10:03:23;;;;;;;;;;;;;;;48.91;13.45;100886.09;4924625;28;99306;-65
2022/06/15 10:05:49;;;;;;;;;;;;;;;49.26;12.98;100894.00;4919936;28;98418;-65
2022/06/15 10:08:15;;;;;;;;;;;;;;;49.54;12.81;100888.13;4908100;28;125127;-65
2022/06/15 10:10:51;;;;;;;;;;;;;;;49.75;12.49;100874.16;4902478;28;116621;-66
2022/06/15 10:13:17;;;;;;;;;;;;;;;49.95;12.53;100872.97;4914293;28;108446;-65
2022/06/15 10:15:43;;;;;;;;;;;;;;;50.03;12.52;100871.06;4907089;28;98285;-65
2022/06/15 10:18:37;;;;;;;;;;;;;;;50.09;12.64;100871.03;4923128;28;98395;-65
2022/06/15 10:21:13;;;;;;;;;;;;;;;50.20;12.05;100868.09;4921909;28;98159;-60
2022/06/15 10:24:02;;;;;;;;;;;;;;;50.07;11.88;100865.84;4919727;28;98376;-60
2022/06/15 10:26:34;;;;;;;;;;;;;;;50.19;12.15;100857.16;4901821;28;98156;-60
2022/06/15 10:29:26;;;;;;;;;;;;;;;50.10;12.41;100859.03;4902428;28;98291;-60
2022/06/15 10:32:10;;;;;;;;;;;;;;;50.20;12.46;100864.47;4916067;28;98187;-60
2022/06/15 10:34:54;;;;;;;;;;;;;;;50.35;12.39;100859.09;4905896;28;98373;-60
2022/06/15 10:37:43;;;;;;;;;;;;;;;50.53;12.14;100852.66;4913133;28;98749;-65
2022/06/15 10:40:29;;;;;;;;;;;;;;;50.65;12.17;100853.28;4918043;28;126798;-65
2022/06/15 10:43:03;;;;;;;;;;;;;;;50.75;12.21;100856.56;4918787;28;98392;-60
2022/06/15 10:45:42;;;;;;;;;;;;;;;51.01;11.59;100848.13;4901882;28;98643;-67
2022/06/15 10:48:16;;;;;;;;;;;;;;;51.06;11.73;100847.31;4913929;28;98255;-60
2022/06/15 10:50:58;;;;;;;;;;;;;;;51.05;11.87;100845.72;4919547;28;114822;-65
2022/06/15 10:53:26;;;;;;;;;;;;;;;51.20;11.81;100833.78;4907831;28;103449;-65
2022/06/15 11:04:30;;;;;;;;;;;;;;;50.94;11.56;100837.31;4923241;28;98104;-65
2022/06/15 11:07:03;;;;;;;;;;;;;;;50.93;11.70;100826.38;4912973;28;98377;-65
2022/06/15 11:09:31;;;;;;;;;;;;;;;50.80;11.86;100827.03;4928393;28;98230;-65
2022/06/15 11:12:00;;;;;;;;;;;;;;;50.74;11.90;100832.84;4902576;28;102218;-60
2022/06/15 11:14:46;;;;;;;;;;;;;;;50.63;11.58;100823.63;4914129;28;97760;-60
2022/06/15 11:20:07;;;;;;;;;;;;;;;50.51;11.81;100809.41;4919144;28;97896;-60
2022/06/15 11:22:33;;;;;;;;;;;;;;;50.57;11.89;100820.81;4919108;28;98131;-65
2022/06/15 11:25:02;;;;;;;;;;;;;;;50.44;11.61;100812.09;4905102;28;97751;-60
2022/06/15 11:28:00;;;;;;;;;;;;;;;50.18;11.92;100815.47;4911562;28;113150;-60
2022/06/15 11:30:27;;;;;;;;;;;;;;;49.90;11.81;100813.69;4911990;28;98584;-65
2022/06/15 11:33:05;;;;;;;;;;;;;;;49.66;11.71;100807.91;4915833;28;97885;-65
2022/06/15 11:35:39;;;;;;;;;;;;;;;49.20;11.97;100796.00;4900524;28;115900;-60
2022/06/15 11:38:13;;;;;;;;;;;;;;;48.86;11.86;100793.31;4902957;28;98223;-66
2022/06/15 11:40:53;;;;;;;;;;;;;;;48.41;12.55;100793.47;4916162;28;98723;-60
2022/06/15 11:43:24;;;;;;;;;;;;;;;47.91;12.63;100787.81;4933266;28;126156;-60
2022/06/15 11:46:03;;;;;;;;;;;;;;;47.44;13.05;100781.88;4918955;28;97954;-64
2022/06/15 11:48:53;;;;;;;;;;;;;;;46.90;13.13;100785.59;4908804;28;99488;-66
2022/06/15 11:51:33;;;;;;;;;;;;;;;46.36;13.20;100774.22;4902071;28;127773;-64
2022/06/15 11:54:22;;;;;;;;;;;;;;;45.89;13.24;100776.50;4919779;28;100569;-59
2022/06/15 11:57:13;;;;;;;;;;;;;;;45.58;13.65;100782.16;4919192;28;98004;-65
2022/06/15 11:59:52;;;;;;;;;;;;;;;45.46;13.75;100782.06;4904695;28;125588;-60
2022/06/15 12:02:38;;;;;;;;;;;;;;;45.26;13.69;100773.56;4920352;28;98864;-60
2022/06/15 12:05:48;;;;;;;;;;;;;;;45.05;14.00;100782.16;4905505;28;98358;-67
2022/06/15 12:08:44;;;;;;;;;;;;;;;45.22;13.74;100775.88;4904331;28;98435;-66
2022/06/15 12:14:31;;;;;;;;;;;;;;;45.21;13.52;100782.84;4910499;28;97738;-60
2022/06/15 12:17:18;;;;;;;;;;;;;;;45.12;13.42;100768.78;4920085;28;98545;-65
2022/06/15 12:19:55;;;;;;;;;;;;;;;44.93;13.70;100765.47;4901771;28;97786;-61
2022/06/15 12:22:40;;;;;;;;;;;;;;;44.84;13.86;100766.38;4911414;28;98548;-65
2022/06/15 12:25:25;;;;;;;;;;;;;;;44.70;13.56;100762.34;4905142;28;98092;-65
2022/06/15 12:27:59;;;;;;;;;;;;;;;44.55;13.98;100758.78;4913580;28;98543;-65
2022/06/15 12:30:53;;;;;;;;;;;;;;;44.38;14.00;100755.72;4899553;28;98003;-60
2022/06/15 12:33:39;;;;;;;;;;;;;;;44.09;14.11;100759.41;4883316;28;98180;-60
2022/06/15 12:36:15;;;;;;;;;;;;;;;43.82;14.27;100749.97;4901518;28;122794;-60
2022/06/15 12:38:57;;;;;;;;;;;;;;;43.60;14.32;100749.59;4898699;28;105098;-65
2022/06/15 12:44:43;;;;;;;;;;;;;;;43.14;14.56;100738.72;4917270;28;98078;-60
2022/06/15 12:47:13;;;;;;;;;;;;;;;43.07;14.57;100734.19;4912063;28;98536;-65
2022/06/15 12:49:45;;;;;;;;;;;;;;;42.87;14.63;100739.72;4901710;28;98641;-65
2022/06/15 12:52:20;;;;;;;;;;;;;;;43.01;14.97;100736.13;4907851;28;108024;-60
2022/06/15 12:55:20;;;;;;;;;;;;;;;42.87;14.90;100739.72;4909613;28;103091;-60
2022/06/15 12:58:11;;;;;;;;;;;;;;;42.44;15.14;100729.78;4898178;28;121268;-65
2022/06/15 13:00:43;;;;;;;;;;;;;;;42.04;15.16;100730.94;4914495;28;109190;-65
2022/06/15 13:03:22;;;;;;;;;;;;;;;41.88;15.38;100729.28;4897589;28;123331;-65
2022/06/15 13:05:48;;;;;;;;;;;;;;;41.76;15.24;100731.03;4901350;28;102638;-61
2022/06/15 13:08:18;;;;;;;;;;;;;;;41.57;15.33;100735.19;4899487;28;116947;-61
2022/06/15 13:10:58;;;;;;;;;;;;;;;41.48;15.46;100724.72;4900242;28;98001;-60
2022/06/15 13:13:55;;;;;;;;;;;;;;;41.33;15.35;100733.03;4901901;28;97724;-65
2022/06/15 13:16:36;;;;;;;;;;;;;;;41.11;15.65;100726.78;4919765;28;99738;-65
2022/06/15 13:19:03;;;;;;;;;;;;;;;40.92;15.64;100721.13;4900440;28;98930;-60